Time;durP1;ratioP1;P1;durP2;ratioP2;P2;SDS_P1;SDS_P2;PMS_P1;PMS_P2;Temp;Humidity;BMP_temperature;BMP_pressure;BME280_temperature;BME280_humidity;BME280_pressure;Samples;Min_cycle;Max_cycle;Signal;HPM_P1;HPM_P2
2022/12/01 00:00:25;;;;;;;;;30.67;27.67;;;;;;;;5090836;28;8800;-69
2022/12/01 00:02:50;;;;;;;;;35.67;31.00;;;;;;;;5089171;28;9566;-69
2022/12/01 00:05:15;;;;;;;;;38.33;29.67;;;;;;;;5090511;28;8934;-69
2022/12/01 00:07:41;;;;;;;;;26.00;20.00;;;;;;;;5089602;28;8815;-69
2022/12/01 00:10:24;;;;;;;;;26.33;23.33;;;;;;;;5090324;28;9502;-70
2022/12/01 00:12:53;;;;;;;;;34.67;26.00;;;;;;;;5090674;28;8855;-70
2022/12/01 00:15:19;;;;;;;;;32.00;26.33;;;;;;;;5090624;28;8792;-69
2022/12/01 00:17:46;;;;;;;;;34.67;29.00;;;;;;;;5089161;28;8997;-69
2022/12/01 00:20:12;;;;;;;;;23.33;19.00;;;;;;;;5090584;28;8804;-70
2022/12/01 00:22:37;;;;;;;;;28.33;25.33;;;;;;;;5090565;28;8867;-69
2022/12/01 00:25:03;;;;;;;;;33.00;30.00;;;;;;;;5090364;28;8969;-70
2022/12/01 00:27:28;;;;;;;;;30.67;25.67;;;;;;;;5090553;28;8808;-69
2022/12/01 00:29:53;;;;;;;;;31.67;26.67;;;;;;;;5090402;28;8791;-69
2022/12/01 00:32:19;;;;;;;;;30.00;28.00;;;;;;;;5090388;28;8780;-70
2022/12/01 00:34:44;;;;;;;;;26.67;22.67;;;;;;;;5090381;28;8796;-69
2022/12/01 00:37:09;;;;;;;;;35.67;30.00;;;;;;;;5090299;28;8915;-70
2022/12/01 00:39:34;;;;;;;;;33.00;24.33;;;;;;;;5090181;28;8776;-69
2022/12/01 00:42:00;;;;;;;;;26.00;22.67;;;;;;;;5090214;28;8830;-69
2022/12/01 00:44:25;;;;;;;;;27.67;25.67;;;;;;;;5089853;28;8858;-69
2022/12/01 00:46:51;;;;;;;;;27.67;22.00;;;;;;;;5090007;28;8800;-69
2022/12/01 00:49:16;;;;;;;;;25.33;21.33;;;;;;;;5090095;28;8796;-70
2022/12/01 06:46:57;;;;;;;;;28.50;26.25;;;;;;;;5155772;27;14253;-73
2022/12/01 06:49:23;;;;;;;;;28.33;22.67;;;;;;;;5124956;27;8829;-72
2022/12/01 06:51:48;;;;;;;;;31.00;24.33;;;;;;;;5125260;27;8825;-72
2022/12/01 06:54:14;;;;;;;;;25.67;19.67;;;;;;;;5126379;27;8825;-72
2022/12/01 06:56:41;;;;;;;;;29.33;21.00;;;;;;;;5124916;27;8817;-72
2022/12/01 06:59:06;;;;;;;;;21.00;17.33;;;;;;;;5125788;27;8789;-70
2022/12/01 07:01:31;;;;;;;;;23.33;20.67;;;;;;;;5125185;27;8902;-71
2022/12/01 07:03:56;;;;;;;;;23.33;22.00;;;;;;;;5126074;27;8808;-70
2022/12/01 07:06:22;;;;;;;;;25.33;22.67;;;;;;;;5125903;27;8805;-70
2022/12/01 07:08:47;;;;;;;;;25.00;23.33;;;;;;;;5126058;27;8793;-70
2022/12/01 07:11:13;;;;;;;;;16.67;14.33;;;;;;;;5125999;27;8832;-69
2022/12/01 07:13:39;;;;;;;;;24.33;20.00;;;;;;;;5126121;27;8915;-70
2022/12/01 07:16:05;;;;;;;;;25.00;22.67;;;;;;;;5125760;27;12449;-69
2022/12/01 07:18:31;;;;;;;;;26.00;22.00;;;;;;;;5125596;27;8793;-68
2022/12/01 07:21:04;;;;;;;;;28.75;24.50;;;;;;;;5123058;27;12246;-68
2022/12/01 07:23:30;;;;;;;;;21.25;20.00;;;;;;;;5125466;27;11477;-68
2022/12/01 07:26:09;;;;;;;;;23.50;20.50;;;;;;;;5125239;27;11486;-69
2022/12/01 07:28:34;;;;;;;;;25.00;24.00;;;;;;;;5123793;27;8773;-68
2022/12/01 07:31:00;;;;;;;;;26.00;22.75;;;;;;;;5125529;27;11490;-68
2022/12/01 07:33:26;;;;;;;;;25.25;23.50;;;;;;;;5125535;27;8781;-67
2022/12/01 07:35:52;;;;;;;;;34.25;27.50;;;;;;;;5125321;27;11007;-67
2022/12/01 07:38:17;;;;;;;;;33.25;28.50;;;;;;;;5125459;27;8773;-67
2022/12/01 07:40:42;;;;;;;;;26.75;26.00;;;;;;;;5125412;27;11508;-69
2022/12/01 07:43:07;;;;;;;;;29.25;27.75;;;;;;;;5125359;27;8820;-69
2022/12/01 07:45:33;;;;;;;;;27.50;26.50;;;;;;;;5125259;27;8939;-67
2022/12/01 07:47:58;;;;;;;;;27.25;24.75;;;;;;;;5125560;27;8805;-68
2022/12/01 07:50:23;;;;;;;;;27.25;22.75;;;;;;;;5125261;27;8866;-69
2022/12/01 07:52:49;;;;;;;;;29.00;26.25;;;;;;;;5125230;27;9529;-68
2022/12/01 07:55:15;;;;;;;;;27.33;23.33;;;;;;;;5125240;27;9637;-69
2022/12/01 07:57:40;;;;;;;;;28.00;24.33;;;;;;;;5115012;28;8781;-69
2022/12/01 08:00:06;;;;;;;;;37.67;30.00;;;;;;;;5111337;28;9036;-67
2022/12/01 18:56:25;;;;;;;;;;;;;;;;;;5053531;27;13385;-71
2022/12/01 18:58:50;;;;;;;;;;;;;;;;;;5033679;28;7547;-72
2022/12/01 19:01:15;;;;;;;;;;;;;;;;;;5043668;28;7533;-72
2022/12/01 19:03:40;;;;;;;;;;;;;;;;;;5045486;28;7529;-71
2022/12/01 19:06:05;;;;;;;;;;;;;;;;;;5048244;28;8040;-70
2022/12/01 19:08:31;;;;;;;;;;;;;;;;;;5047088;28;7529;-72
2022/12/01 19:10:56;;;;;;;;;;;;;;;;;;5030511;28;7973;-72
2022/12/01 19:13:21;;;;;;;;;;;;;;;;;;5027888;28;7541;-73
2022/12/01 19:15:46;;;;;;;;;;;;;;;;;;5027401;28;7550;-73
2022/12/01 19:18:11;;;;;;;;;;;;;;;;;;5026989;28;7631;-74
2022/12/01 19:20:36;;;;;;;;;;;;;;;;;;5027222;28;7561;-76
2022/12/01 19:23:02;;;;;;;;;;;;;;;;;;5028209;28;7521;-75
2022/12/01 19:25:27;;;;;;;;;;;;;;;;;;5026690;28;7624;-73
2022/12/01 19:27:52;;;;;;;;;;;;;;;;;;5026674;28;7525;-76
2022/12/01 19:30:17;;;;;;;;;;;;;;;;;;5038071;28;7529;-73
2022/12/01 19:32:43;;;;;;;;;;;;;;;;;;5029649;28;7519;-74
2022/12/01 19:35:08;;;;;;;;;;;;;;;;;;5025434;28;7521;-75
2022/12/01 19:37:33;;;;;;;;;;;;;;;;;;5025255;28;7583;-76
2022/12/01 19:39:58;;;;;;;;;;;;;;;;;;5025627;28;7576;-76
2022/12/01 19:42:23;;;;;;;;;;;;;;;;;;5026017;28;7957;-74
2022/12/01 19:44:48;;;;;;;;;;;;;;;;;;5025808;28;7525;-75
2022/12/01 19:47:14;;;;;;;;;;;;;;;;;;5026248;28;7537;-75
2022/12/01 19:49:39;;;;;;;;;;;;;;;;;;5024726;28;7636;-74
2022/12/01 19:52:05;;;;;;;;;;;;;;;;;;5027947;28;8289;-74
2022/12/01 19:54:31;;;;;;;;;;;;;;;;;;5026404;28;7532;-74
2022/12/01 19:56:56;;;;;;;;;;;;;;;;;;4918625;28;11381;-78
2022/12/01 19:59:50;;;;;;;;;18.00;15.33;;;;;;;;4871023;28;13698;-67
2022/12/01 20:02:15;;;;;;;;;18.33;15.67;;;;;;;;4898295;29;12403;-68
2022/12/01 20:04:40;;;;;;;;;;;;;;;;;;4931154;29;8958;-69
2022/12/01 20:07:05;;;;;;;;;;;;;;;;;;4931079;29;7538;-68
2022/12/01 20:09:31;;;;;;;;;;;;;;;;;;4927118;29;7567;-68
2022/12/01 20:11:56;;;;;;;;;;;;;;;;;;4926304;29;7527;-69
2022/12/01 20:14:21;;;;;;;;;;;;;;;;;;4911829;29;7559;-68
2022/12/01 20:16:46;;;;;;;;;;;;;;;;;;4918998;29;7531;-68
2022/12/01 20:19:11;;;;;;;;;;;;;;;;;;4920325;29;7555;-67
2022/12/01 20:21:40;;;;;;;;;;;;;;;;;;4922138;29;7676;-68
2022/12/01 20:24:06;;;;;;;;;;;;;;;;;;4921262;29;7523;-67
2022/12/01 20:26:31;;;;;;;;;;;;;;;;;;4918315;29;7602;-68
2022/12/01 20:28:56;;;;;;;;;;;;;;;;;;4935868;29;7601;-67
2022/12/01 20:31:21;;;;;;;;;;;;;;;;;;4917875;29;7563;-67
2022/12/01 20:33:46;;;;;;;;;;;;;;;;;;4919953;29;7979;-68
2022/12/01 20:36:13;;;;;;;;;;;;;;;;;;4919723;29;7651;-68
2022/12/01 20:38:38;;;;;;;;;;;;;;;;;;4919356;29;7585;-68
2022/12/01 20:41:03;;;;;;;;;;;;;;;;;;4920576;29;7531;-68
2022/12/01 20:43:28;;;;;;;;;;;;;;;;;;4919804;29;7527;-68
2022/12/01 20:45:53;;;;;;;;;;;;;;;;;;4920748;29;7531;-73
2022/12/01 20:48:18;;;;;;;;;;;;;;;;;;4920493;29;7555;-72
2022/12/01 20:50:43;;;;;;;;;;;;;;;;;;4920217;29;7527;-69
2022/12/01 20:53:09;;;;;;;;;;;;;;;;;;4921242;29;7531;-69
2022/12/01 20:55:34;;;;;;;;;;;;;;;;;;4919058;29;7535;-70
2022/12/01 20:58:01;;;;;;;;;;;;;;;;;;4924568;29;7569;-69
2022/12/01 21:00:26;;;;;;;;;;;;;;;;;;4937597;29;7519;-69
2022/12/01 21:02:51;;;;;;;;;;;;;;;;;;4938244;29;7539;-68
2022/12/01 21:05:17;;;;;;;;;;;;;;;;;;4938913;29;7550;-69
2022/12/01 21:07:42;;;;;;;;;;;;;;;;;;4937263;29;7550;-70
2022/12/01 21:10:07;;;;;;;;;;;;;;;;;;4929998;29;7578;-69
2022/12/01 21:15:16;;;;;;;;;;;;;;;;;;4925194;29;7519;-69
2022/12/01 21:17:41;;;;;;;;;;;;;;;;;;4923482;29;7614;-69
2022/12/01 21:20:06;;;;;;;;;;;;;;;;;;4932303;29;7527;-69
2022/12/01 21:22:31;;;;;;;;;;;;;;;;;;4942244;29;7535;-69
2022/12/01 21:24:56;;;;;;;;;;;;;;;;;;4923158;29;7527;-69
2022/12/01 21:27:22;;;;;;;;;;;;;;;;;;4926082;29;7625;-68
2022/12/01 21:29:47;;;;;;;;;;;;;;;;;;4924802;29;7535;-69
2022/12/01 21:32:12;;;;;;;;;;;;;;;;;;4924783;29;7545;-69
2022/12/01 21:34:37;;;;;;;;;;;;;;;;;;4933592;29;7549;-68
2022/12/01 21:37:02;;;;;;;;;;;;;;;;;;4917087;29;7954;-69
2022/12/01 21:39:27;;;;;;;;;;;;;;;;;;4939902;29;7577;-68
2022/12/01 21:41:52;;;;;;;;;;;;;;;;;;4937832;29;7541;-68
2022/12/01 21:44:18;;;;;;;;;;;;;;;;;;4935517;29;7642;-68
2022/12/01 21:46:43;;;;;;;;;;;;;;;;;;4935570;29;7527;-70
2022/12/01 21:49:08;;;;;;;;;;;;;;;;;;4934124;29;7527;-68
2022/12/01 21:51:33;;;;;;;;;;;;;;;;;;4941301;29;7538;-69
2022/12/01 21:53:58;;;;;;;;;;;;;;;;;;4936228;29;7549;-68
2022/12/01 21:56:23;;;;;;;;;;;;;;;;;;4935558;29;7545;-68
2022/12/01 21:58:49;;;;;;;;;;;;;;;;;;4935160;29;7590;-68
2022/12/01 22:01:14;;;;;;;;;;;;;;;;;;4935489;29;7522;-67
2022/12/01 22:03:39;;;;;;;;;;;;;;;;;;4935204;29;7534;-68
2022/12/01 22:06:04;;;;;;;;;;;;;;;;;;4935420;29;7562;-69
2022/12/01 22:08:29;;;;;;;;;;;;;;;;;;4933717;29;7523;-67
2022/12/01 22:10:55;;;;;;;;;;;;;;;;;;4934822;29;7519;-68
2022/12/01 22:13:20;;;;;;;;;;;;;;;;;;4934981;29;7554;-68
2022/12/01 22:15:45;;;;;;;;;;;;;;;;;;4935585;29;7578;-67
2022/12/01 22:18:10;;;;;;;;;;;;;;;;;;4934991;29;7539;-69
2022/12/01 22:20:35;;;;;;;;;;;;;;;;;;4935212;29;7519;-69
2022/12/01 22:23:00;;;;;;;;;;;;;;;;;;4934261;29;7551;-69
2022/12/01 22:25:25;;;;;;;;;;;;;;;;;;4934920;29;7523;-68
2022/12/01 22:27:51;;;;;;;;;;;;;;;;;;4934680;29;7530;-68
2022/12/01 22:30:16;;;;;;;;;;;;;;;;;;4935038;29;7530;-68
2022/12/01 22:32:41;;;;;;;;;;;;;;;;;;4934818;29;7550;-69
2022/12/01 22:35:06;;;;;;;;;;;;;;;;;;4934807;29;7535;-69
2022/12/01 22:37:31;;;;;;;;;;;;;;;;;;4934733;29;7560;-69
2022/12/01 22:39:56;;;;;;;;;;;;;;;;;;4934738;29;8025;-69
2022/12/01 22:42:21;;;;;;;;;;;;;;;;;;4934701;29;7530;-68
2022/12/01 22:44:46;;;;;;;;;;;;;;;;;;4934617;29;7527;-69
2022/12/01 22:47:12;;;;;;;;;;;;;;;;;;4934056;29;7523;-68
2022/12/01 22:49:37;;;;;;;;;;;;;;;;;;4934525;29;7535;-69
2022/12/01 22:52:02;;;;;;;;;;;;;;;;;;4934564;29;7546;-69
2022/12/01 22:54:27;;;;;;;;;;;;;;;;;;4934400;29;7534;-69
2022/12/01 22:56:52;;;;;;;;;;;;;;;;;;4934419;29;7523;-68
2022/12/01 22:59:17;;;;;;;;;;;;;;;;;;4934210;29;7590;-68
2022/12/01 23:01:42;;;;;;;;;;;;;;;;;;4934387;29;7531;-68
2022/12/01 23:04:07;;;;;;;;;;;;;;;;;;4933762;29;7530;-68
2022/12/01 23:06:33;;;;;;;;;;;;;;;;;;4934192;29;7530;-67
2022/12/01 23:08:58;;;;;;;;;;;;;;;;;;4934124;29;7535;-68
2022/12/01 23:11:23;;;;;;;;;;;;;;;;;;4934183;29;7523;-69
2022/12/01 23:13:48;;;;;;;;;;;;;;;;;;4934266;29;7605;-68
2022/12/01 23:16:13;;;;;;;;;;;;;;;;;;4934592;29;7527;-69
2022/12/01 23:18:38;;;;;;;;;;;;;;;;;;4933949;29;7963;-68
2022/12/01 23:21:03;;;;;;;;;;;;;;;;;;4933694;29;7527;-69
2022/12/01 23:23:28;;;;;;;;;;;;;;;;;;4933989;29;7527;-68
2022/12/01 23:25:54;;;;;;;;;;;;;;;;;;4934129;29;7527;-68
2022/12/01 23:28:19;;;;;;;;;;;;;;;;;;4934105;29;7527;-68
2022/12/01 23:30:44;;;;;;;;;;;;;;;;;;4934141;29;7963;-69
2022/12/01 23:33:09;;;;;;;;;;;;;;;;;;4933906;29;7570;-68
2022/12/01 23:35:34;;;;;;;;;;;;;;;;;;4932738;29;7613;-68
2022/12/01 23:37:59;;;;;;;;;;;;;;;;;;4933646;29;7998;-68
2022/12/01 23:40:24;;;;;;;;;;;;;;;;;;4933593;29;7534;-68
2022/12/01 23:42:50;;;;;;;;;;;;;;;;;;4933782;29;7630;-69
2022/12/01 23:45:15;;;;;;;;;;;;;;;;;;4932583;29;7519;-68
2022/12/01 23:47:40;;;;;;;;;;;;;;;;;;4933713;29;7535;-69
2022/12/01 23:50:05;;;;;;;;;;;;;;;;;;4934051;29;7523;-69
2022/12/01 23:52:30;;;;;;;;;;;;;;;;;;4933776;29;7551;-68
2022/12/01 23:54:58;;;;;;;;;;;;;;;;;;4931951;29;7542;-69
2022/12/01 23:57:23;;;;;;;;;;;;;;;;;;4932287;29;7519;-68
2022/12/01 23:59:48;;;;;;;;;;;;;;;;;;4933602;29;7531;-69
